sensor_id;sensor_type;location;lat;lon;timestamp;P1;durP1;ratioP1;P2;durP2;ratioP2
42846;SDS011;28495;49.916;14.536;2023-05-23T00:02:36;6.28;;;3.55;;
42846;SDS011;28495;49.916;14.536;2023-05-23T00:07:57;6.35;;;3.92;;
42846;SDS011;28495;49.916;14.536;2023-05-23T00:13:18;6.32;;;4.05;;
42846;SDS011;28495;49.916;14.536;2023-05-23T00:18:39;4.07;;;3.67;;
42846;SDS011;28495;49.916;14.536;2023-05-23T00:24:02;5.47;;;4.30;;
42846;SDS011;28495;49.916;14.536;2023-05-23T00:29:23;4.68;;;3.80;;
42846;SDS011;28495;49.916;14.536;2023-05-23T00:34:45;6.43;;;3.90;;
42846;SDS011;28495;49.916;14.536;2023-05-23T00:40:06;4.57;;;3.22;;
42846;SDS011;28495;49.916;14.536;2023-05-23T00:45:27;4.05;;;3.10;;
42846;SDS011;28495;49.916;14.536;2023-05-23T00:50:48;5.57;;;4.32;;
42846;SDS011;28495;49.916;14.536;2023-05-23T00:56:09;6.00;;;3.83;;
42846;SDS011;28495;49.916;14.536;2023-05-23T01:01:31;5.63;;;3.78;;
42846;SDS011;28495;49.916;14.536;2023-05-23T01:06:55;6.22;;;4.05;;
42846;SDS011;28495;49.916;14.536;2023-05-23T01:23:45;4.72;;;3.63;;
42846;SDS011;28495;49.916;14.536;2023-05-23T01:29:24;5.93;;;3.97;;
42846;SDS011;28495;49.916;14.536;2023-05-23T01:34:47;8.48;;;4.35;;
42846;SDS011;28495;49.916;14.536;2023-05-23T01:40:12;4.90;;;3.78;;
42846;SDS011;28495;49.916;14.536;2023-05-23T01:45:33;4.78;;;3.83;;
42846;SDS011;28495;49.916;14.536;2023-05-23T01:50:55;7.45;;;4.28;;
42846;SDS011;28495;49.916;14.536;2023-05-23T01:56:17;6.45;;;3.88;;
42846;SDS011;28495;49.916;14.536;2023-05-23T02:01:39;7.10;;;4.55;;
42846;SDS011;28495;49.916;14.536;2023-05-23T02:07:01;5.78;;;3.88;;
42846;SDS011;28495;49.916;14.536;2023-05-23T02:12:22;4.32;;;3.92;;
42846;SDS011;28495;49.916;14.536;2023-05-23T02:17:42;7.05;;;3.80;;
42846;SDS011;28495;49.916;14.536;2023-05-23T02:23:03;3.70;;;3.25;;
42846;SDS011;28495;49.916;14.536;2023-05-23T02:28:24;6.47;;;3.90;;
42846;SDS011;28495;49.916;14.536;2023-05-23T02:33:45;4.78;;;4.28;;
42846;SDS011;28495;49.916;14.536;2023-05-23T02:39:07;9.73;;;3.95;;
42846;SDS011;28495;49.916;14.536;2023-05-23T02:44:27;5.82;;;4.32;;
42846;SDS011;28495;49.916;14.536;2023-05-23T02:49:50;5.38;;;4.25;;
42846;SDS011;28495;49.916;14.536;2023-05-23T02:55:10;5.47;;;4.82;;
42846;SDS011;28495;49.916;14.536;2023-05-23T03:00:36;5.40;;;4.28;;
42846;SDS011;28495;49.916;14.536;2023-05-23T03:05:58;5.85;;;4.20;;
42846;SDS011;28495;49.916;14.536;2023-05-23T03:11:19;6.45;;;3.95;;
42846;SDS011;28495;49.916;14.536;2023-05-23T03:16:42;6.15;;;4.05;;
42846;SDS011;28495;49.916;14.536;2023-05-23T03:22:03;4.57;;;3.53;;
42846;SDS011;28495;49.916;14.536;2023-05-23T03:27:24;7.00;;;3.95;;
42846;SDS011;28495;49.916;14.536;2023-05-23T03:32:45;11.10;;;4.60;;
42846;SDS011;28495;49.916;14.536;2023-05-23T03:38:06;5.38;;;3.95;;
42846;SDS011;28495;49.916;14.536;2023-05-23T03:43:27;6.50;;;4.70;;
42846;SDS011;28495;49.916;14.536;2023-05-23T03:48:48;4.95;;;3.85;;
42846;SDS011;28495;49.916;14.536;2023-05-23T03:54:09;9.27;;;3.97;;
42846;SDS011;28495;49.916;14.536;2023-05-23T03:59:31;6.72;;;3.67;;
42846;SDS011;28495;49.916;14.536;2023-05-23T04:04:52;7.70;;;4.30;;
42846;SDS011;28495;49.916;14.536;2023-05-23T04:10:17;8.07;;;3.97;;
42846;SDS011;28495;49.916;14.536;2023-05-23T04:15:39;6.35;;;4.28;;
42846;SDS011;28495;49.916;14.536;2023-05-23T04:21:04;8.20;;;3.90;;
42846;SDS011;28495;49.916;14.536;2023-05-23T04:26:29;7.45;;;3.78;;
42846;SDS011;28495;49.916;14.536;2023-05-23T04:31:50;5.57;;;4.00;;
42846;SDS011;28495;49.916;14.536;2023-05-23T04:37:12;9.45;;;4.35;;
42846;SDS011;28495;49.916;14.536;2023-05-23T04:42:34;6.95;;;4.28;;
42846;SDS011;28495;49.916;14.536;2023-05-23T04:48:05;7.88;;;3.83;;
42846;SDS011;28495;49.916;14.536;2023-05-23T04:53:33;4.15;;;3.35;;
42846;SDS011;28495;49.916;14.536;2023-05-23T04:58:54;6.30;;;4.47;;
42846;SDS011;28495;49.916;14.536;2023-05-23T05:04:17;5.28;;;3.92;;
42846;SDS011;28495;49.916;14.536;2023-05-23T05:09:38;21.25;;;5.25;;
42846;SDS011;28495;49.916;14.536;2023-05-23T05:15:02;15.68;;;4.00;;
42846;SDS011;28495;49.916;14.536;2023-05-23T05:20:24;7.35;;;4.32;;
42846;SDS011;28495;49.916;14.536;2023-05-23T05:25:45;5.00;;;4.00;;
42846;SDS011;28495;49.916;14.536;2023-05-23T05:31:06;6.43;;;4.47;;
42846;SDS011;28495;49.916;14.536;2023-05-23T05:36:28;8.80;;;4.75;;
42846;SDS011;28495;49.916;14.536;2023-05-23T05:41:51;9.98;;;3.75;;
42846;SDS011;28495;49.916;14.536;2023-05-23T05:47:13;8.07;;;4.72;;
42846;SDS011;28495;49.916;14.536;2023-05-23T05:52:35;7.50;;;4.32;;
42846;SDS011;28495;49.916;14.536;2023-05-23T05:57:59;6.13;;;3.90;;
42846;SDS011;28495;49.916;14.536;2023-05-23T06:03:25;6.05;;;3.97;;
42846;SDS011;28495;49.916;14.536;2023-05-23T06:08:48;6.60;;;3.63;;
42846;SDS011;28495;49.916;14.536;2023-05-23T06:14:09;4.85;;;3.45;;
42846;SDS011;28495;49.916;14.536;2023-05-23T06:19:34;6.97;;;4.57;;
42846;SDS011;28495;49.916;14.536;2023-05-23T06:24:55;6.47;;;4.82;;
42846;SDS011;28495;49.916;14.536;2023-05-23T06:30:16;8.93;;;4.25;;
42846;SDS011;28495;49.916;14.536;2023-05-23T06:35:38;6.95;;;4.10;;
42846;SDS011;28495;49.916;14.536;2023-05-23T06:40:59;7.07;;;4.00;;
42846;SDS011;28495;49.916;14.536;2023-05-23T06:46:22;5.03;;;3.95;;
42846;SDS011;28495;49.916;14.536;2023-05-23T06:51:43;9.88;;;4.10;;
42846;SDS011;28495;49.916;14.536;2023-05-23T06:57:05;6.65;;;4.28;;
42846;SDS011;28495;49.916;14.536;2023-05-23T07:02:26;5.82;;;4.15;;
42846;SDS011;28495;49.916;14.536;2023-05-23T07:07:48;9.25;;;4.57;;
42846;SDS011;28495;49.916;14.536;2023-05-23T07:13:09;5.57;;;4.72;;
42846;SDS011;28495;49.916;14.536;2023-05-23T07:18:31;7.30;;;4.40;;
42846;SDS011;28495;49.916;14.536;2023-05-23T07:23:51;6.63;;;4.28;;
42846;SDS011;28495;49.916;14.536;2023-05-23T07:29:14;6.72;;;4.03;;
42846;SDS011;28495;49.916;14.536;2023-05-23T07:34:38;8.23;;;4.90;;
42846;SDS011;28495;49.916;14.536;2023-05-23T07:39:59;6.00;;;3.90;;
42846;SDS011;28495;49.916;14.536;2023-05-23T07:45:21;6.28;;;4.70;;
42846;SDS011;28495;49.916;14.536;2023-05-23T07:50:42;4.50;;;3.70;;
42846;SDS011;28495;49.916;14.536;2023-05-23T07:56:03;6.55;;;5.22;;
42846;SDS011;28495;49.916;14.536;2023-05-23T08:01:29;8.52;;;4.50;;
42846;SDS011;28495;49.916;14.536;2023-05-23T08:06:56;7.25;;;4.43;;
42846;SDS011;28495;49.916;14.536;2023-05-23T08:12:38;7.03;;;4.38;;
42846;SDS011;28495;49.916;14.536;2023-05-23T08:18:04;8.82;;;3.78;;
42846;SDS011;28495;49.916;14.536;2023-05-23T08:23:25;14.18;;;4.18;;
42846;SDS011;28495;49.916;14.536;2023-05-23T08:28:46;9.27;;;3.88;;
42846;SDS011;28495;49.916;14.536;2023-05-23T08:34:08;9.40;;;3.30;;
42846;SDS011;28495;49.916;14.536;2023-05-23T08:39:30;5.10;;;3.53;;
42846;SDS011;28495;49.916;14.536;2023-05-23T08:45:11;6.75;;;3.33;;
42846;SDS011;28495;49.916;14.536;2023-05-23T08:50:32;4.47;;;3.45;;
42846;SDS011;28495;49.916;14.536;2023-05-23T08:55:54;3.70;;;2.97;;
42846;SDS011;28495;49.916;14.536;2023-05-23T09:01:24;3.70;;;2.67;;
42846;SDS011;28495;49.916;14.536;2023-05-23T09:06:50;2.65;;;2.00;;
42846;SDS011;28495;49.916;14.536;2023-05-23T09:12:11;2.80;;;2.35;;
42846;SDS011;28495;49.916;14.536;2023-05-23T09:17:33;4.03;;;3.15;;
42846;SDS011;28495;49.916;14.536;2023-05-23T09:22:55;3.83;;;2.60;;
42846;SDS011;28495;49.916;14.536;2023-05-23T09:28:16;3.95;;;2.85;;
42846;SDS011;28495;49.916;14.536;2023-05-23T09:33:44;7.05;;;3.15;;
42846;SDS011;28495;49.916;14.536;2023-05-23T09:39:07;3.92;;;3.10;;
42846;SDS011;28495;49.916;14.536;2023-05-23T09:44:32;6.20;;;3.10;;
42846;SDS011;28495;49.916;14.536;2023-05-23T09:50:02;6.43;;;3.22;;
42846;SDS011;28495;49.916;14.536;2023-05-23T09:55:24;5.68;;;3.35;;
42846;SDS011;28495;49.916;14.536;2023-05-23T10:00:45;4.80;;;3.70;;
42846;SDS011;28495;49.916;14.536;2023-05-23T10:06:12;5.35;;;4.55;;
42846;SDS011;28495;49.916;14.536;2023-05-23T10:17:27;6.35;;;5.70;;
42846;SDS011;28495;49.916;14.536;2023-05-23T10:22:58;6.10;;;5.40;;
42846;SDS011;28495;49.916;14.536;2023-05-23T10:28:19;7.85;;;6.15;;
42846;SDS011;28495;49.916;14.536;2023-05-23T10:33:42;7.72;;;5.47;;
42846;SDS011;28495;49.916;14.536;2023-05-23T10:50:42;6.35;;;4.95;;
42846;SDS011;28495;49.916;14.536;2023-05-23T10:56:06;8.25;;;5.68;;
42846;SDS011;28495;49.916;14.536;2023-05-23T11:01:28;7.65;;;6.60;;
42846;SDS011;28495;49.916;14.536;2023-05-23T11:06:49;9.55;;;6.03;;
42846;SDS011;28495;49.916;14.536;2023-05-23T11:12:10;8.25;;;6.55;;
42846;SDS011;28495;49.916;14.536;2023-05-23T11:17:31;10.02;;;6.18;;
42846;SDS011;28495;49.916;14.536;2023-05-23T11:22:54;9.98;;;6.63;;
42846;SDS011;28495;49.916;14.536;2023-05-23T11:28:18;6.93;;;5.78;;
42846;SDS011;28495;49.916;14.536;2023-05-23T11:33:39;8.77;;;7.03;;
42846;SDS011;28495;49.916;14.536;2023-05-23T11:39:00;11.02;;;7.55;;
42846;SDS011;28495;49.916;14.536;2023-05-23T11:44:23;13.05;;;8.50;;
42846;SDS011;28495;49.916;14.536;2023-05-23T11:49:45;9.82;;;7.40;;
42846;SDS011;28495;49.916;14.536;2023-05-23T11:55:07;11.13;;;7.43;;
42846;SDS011;28495;49.916;14.536;2023-05-23T12:00:28;9.80;;;7.55;;
42846;SDS011;28495;49.916;14.536;2023-05-23T12:05:50;13.07;;;8.05;;
42846;SDS011;28495;49.916;14.536;2023-05-23T12:11:11;8.48;;;6.82;;
42846;SDS011;28495;49.916;14.536;2023-05-23T12:16:33;10.70;;;8.05;;
42846;SDS011;28495;49.916;14.536;2023-05-23T12:21:55;11.52;;;8.00;;
42846;SDS011;28495;49.916;14.536;2023-05-23T12:27:15;11.18;;;7.70;;
42846;SDS011;28495;49.916;14.536;2023-05-23T12:32:38;9.57;;;7.70;;
42846;SDS011;28495;49.916;14.536;2023-05-23T12:38:01;8.15;;;6.65;;
42846;SDS011;28495;49.916;14.536;2023-05-23T12:43:21;8.25;;;5.90;;
42846;SDS011;28495;49.916;14.536;2023-05-23T12:48:42;10.60;;;7.47;;
42846;SDS011;28495;49.916;14.536;2023-05-23T12:54:03;9.32;;;7.18;;
42846;SDS011;28495;49.916;14.536;2023-05-23T12:59:24;9.00;;;7.88;;
42846;SDS011;28495;49.916;14.536;2023-05-23T13:04:45;10.35;;;8.02;;
42846;SDS011;28495;49.916;14.536;2023-05-23T13:10:05;10.10;;;7.22;;
42846;SDS011;28495;49.916;14.536;2023-05-23T13:15:26;11.00;;;7.70;;
42846;SDS011;28495;49.916;14.536;2023-05-23T13:20:47;8.05;;;6.22;;
42846;SDS011;28495;49.916;14.536;2023-05-23T13:26:08;12.00;;;8.13;;
42846;SDS011;28495;49.916;14.536;2023-05-23T13:31:29;10.40;;;7.50;;
42846;SDS011;28495;49.916;14.536;2023-05-23T13:36:50;10.80;;;7.50;;
42846;SDS011;28495;49.916;14.536;2023-05-23T13:42:11;10.07;;;6.88;;
42846;SDS011;28495;49.916;14.536;2023-05-23T13:47:32;8.13;;;6.50;;
42846;SDS011;28495;49.916;14.536;2023-05-23T13:52:53;10.25;;;7.55;;
42846;SDS011;28495;49.916;14.536;2023-05-23T13:58:14;8.73;;;6.38;;
42846;SDS011;28495;49.916;14.536;2023-05-23T14:03:35;6.68;;;5.88;;
42846;SDS011;28495;49.916;14.536;2023-05-23T14:08:56;7.32;;;5.55;;
42846;SDS011;28495;49.916;14.536;2023-05-23T14:14:17;7.90;;;5.97;;
42846;SDS011;28495;49.916;14.536;2023-05-23T14:19:38;8.15;;;6.05;;
42846;SDS011;28495;49.916;14.536;2023-05-23T14:24:59;6.15;;;5.53;;
42846;SDS011;28495;49.916;14.536;2023-05-23T14:30:19;7.10;;;5.50;;
42846;SDS011;28495;49.916;14.536;2023-05-23T14:35:40;7.07;;;4.93;;
42846;SDS011;28495;49.916;14.536;2023-05-23T14:41:02;6.00;;;4.85;;
42846;SDS011;28495;49.916;14.536;2023-05-23T14:46:23;7.55;;;5.53;;
42846;SDS011;28495;49.916;14.536;2023-05-23T14:51:44;5.85;;;5.13;;
42846;SDS011;28495;49.916;14.536;2023-05-23T14:57:11;6.97;;;4.78;;
42846;SDS011;28495;49.916;14.536;2023-05-23T15:02:31;7.15;;;5.22;;
42846;SDS011;28495;49.916;14.536;2023-05-23T15:07:52;7.18;;;5.32;;
42846;SDS011;28495;49.916;14.536;2023-05-23T15:13:13;6.22;;;5.25;;
42846;SDS011;28495;49.916;14.536;2023-05-23T15:18:34;5.95;;;4.90;;
42846;SDS011;28495;49.916;14.536;2023-05-23T15:24:01;5.93;;;4.47;;
42846;SDS011;28495;49.916;14.536;2023-05-23T15:29:22;5.20;;;4.00;;
42846;SDS011;28495;49.916;14.536;2023-05-23T15:34:44;2.83;;;2.63;;
42846;SDS011;28495;49.916;14.536;2023-05-23T15:40:05;3.75;;;2.38;;
42846;SDS011;28495;49.916;14.536;2023-05-23T15:45:26;3.13;;;2.33;;
42846;SDS011;28495;49.916;14.536;2023-05-23T15:50:47;1.92;;;1.75;;
42846;SDS011;28495;49.916;14.536;2023-05-23T15:56:08;1.70;;;1.60;;
42846;SDS011;28495;49.916;14.536;2023-05-23T16:01:29;4.25;;;1.85;;
42846;SDS011;28495;49.916;14.536;2023-05-23T16:06:50;3.45;;;1.67;;
42846;SDS011;28495;49.916;14.536;2023-05-23T16:12:11;2.72;;;1.88;;
42846;SDS011;28495;49.916;14.536;2023-05-23T16:17:31;2.15;;;1.88;;
42846;SDS011;28495;49.916;14.536;2023-05-23T16:22:52;2.15;;;1.67;;
42846;SDS011;28495;49.916;14.536;2023-05-23T16:28:15;1.30;;;1.20;;
42846;SDS011;28495;49.916;14.536;2023-05-23T16:33:37;4.45;;;1.17;;
42846;SDS011;28495;49.916;14.536;2023-05-23T16:38:58;2.55;;;1.45;;
42846;SDS011;28495;49.916;14.536;2023-05-23T16:44:18;1.60;;;1.50;;
42846;SDS011;28495;49.916;14.536;2023-05-23T16:49:40;1.42;;;1.30;;
42846;SDS011;28495;49.916;14.536;2023-05-23T16:55:02;2.28;;;1.80;;
42846;SDS011;28495;49.916;14.536;2023-05-23T17:00:25;2.67;;;1.58;;
42846;SDS011;28495;49.916;14.536;2023-05-23T17:05:46;2.03;;;1.65;;
42846;SDS011;28495;49.916;14.536;2023-05-23T17:11:07;3.35;;;1.52;;
42846;SDS011;28495;49.916;14.536;2023-05-23T17:16:27;1.25;;;0.80;;
42846;SDS011;28495;49.916;14.536;2023-05-23T17:21:53;1.23;;;1.00;;
42846;SDS011;28495;49.916;14.536;2023-05-23T17:27:13;0.70;;;0.70;;
42846;SDS011;28495;49.916;14.536;2023-05-23T17:32:35;0.60;;;0.60;;
42846;SDS011;28495;49.916;14.536;2023-05-23T17:37:56;1.90;;;0.70;;
42846;SDS011;28495;49.916;14.536;2023-05-23T17:43:17;0.70;;;0.70;;
42846;SDS011;28495;49.916;14.536;2023-05-23T17:48:38;0.88;;;0.80;;
42846;SDS011;28495;49.916;14.536;2023-05-23T17:54:04;1.67;;;0.88;;
42846;SDS011;28495;49.916;14.536;2023-05-23T17:59:25;1.15;;;0.90;;
42846;SDS011;28495;49.916;14.536;2023-05-23T18:04:47;0.52;;;0.52;;
42846;SDS011;28495;49.916;14.536;2023-05-23T18:10:09;4.72;;;0.70;;
42846;SDS011;28495;49.916;14.536;2023-05-23T18:15:30;0.63;;;0.63;;
42846;SDS011;28495;49.916;14.536;2023-05-23T18:20:51;0.73;;;0.68;;
42846;SDS011;28495;49.916;14.536;2023-05-23T18:26:12;0.60;;;0.60;;
42846;SDS011;28495;49.916;14.536;2023-05-23T18:31:32;0.63;;;0.63;;
42846;SDS011;28495;49.916;14.536;2023-05-23T18:36:53;0.28;;;0.28;;
42846;SDS011;28495;49.916;14.536;2023-05-23T18:42:15;0.35;;;0.35;;
42846;SDS011;28495;49.916;14.536;2023-05-23T18:47:36;0.40;;;0.40;;
42846;SDS011;28495;49.916;14.536;2023-05-23T18:52:57;0.30;;;0.30;;
42846;SDS011;28495;49.916;14.536;2023-05-23T18:58:18;0.40;;;0.40;;
42846;SDS011;28495;49.916;14.536;2023-05-23T19:03:38;1.27;;;0.50;;
42846;SDS011;28495;49.916;14.536;2023-05-23T19:09:00;0.75;;;0.73;;
42846;SDS011;28495;49.916;14.536;2023-05-23T19:14:22;5.05;;;1.38;;
42846;SDS011;28495;49.916;14.536;2023-05-23T19:19:43;1.08;;;0.98;;
42846;SDS011;28495;49.916;14.536;2023-05-23T19:25:04;1.45;;;1.15;;
42846;SDS011;28495;49.916;14.536;2023-05-23T19:30:26;1.58;;;1.13;;
42846;SDS011;28495;49.916;14.536;2023-05-23T19:35:47;1.45;;;1.13;;
42846;SDS011;28495;49.916;14.536;2023-05-23T19:41:08;1.10;;;1.00;;
42846;SDS011;28495;49.916;14.536;2023-05-23T19:46:29;1.05;;;1.00;;
42846;SDS011;28495;49.916;14.536;2023-05-23T19:51:50;1.20;;;1.10;;
42846;SDS011;28495;49.916;14.536;2023-05-23T19:57:11;1.05;;;0.95;;
42846;SDS011;28495;49.916;14.536;2023-05-23T20:02:32;4.00;;;1.17;;
42846;SDS011;28495;49.916;14.536;2023-05-23T20:07:53;1.10;;;1.00;;
42846;SDS011;28495;49.916;14.536;2023-05-23T20:13:14;2.00;;;1.30;;
42846;SDS011;28495;49.916;14.536;2023-05-23T20:18:35;1.88;;;1.20;;
42846;SDS011;28495;49.916;14.536;2023-05-23T20:23:56;1.65;;;1.40;;
42846;SDS011;28495;49.916;14.536;2023-05-23T20:29:17;1.83;;;1.48;;
42846;SDS011;28495;49.916;14.536;2023-05-23T20:34:37;1.90;;;1.38;;
42846;SDS011;28495;49.916;14.536;2023-05-23T20:39:58;3.90;;;1.52;;
42846;SDS011;28495;49.916;14.536;2023-05-23T20:45:19;1.60;;;1.50;;
42846;SDS011;28495;49.916;14.536;2023-05-23T20:50:41;2.17;;;1.52;;
42846;SDS011;28495;49.916;14.536;2023-05-23T20:56:04;2.38;;;1.63;;
42846;SDS011;28495;49.916;14.536;2023-05-23T21:01:25;1.55;;;1.45;;
42846;SDS011;28495;49.916;14.536;2023-05-23T21:06:48;1.50;;;1.40;;
42846;SDS011;28495;49.916;14.536;2023-05-23T21:12:09;1.80;;;1.10;;
42846;SDS011;28495;49.916;14.536;2023-05-23T21:17:29;1.08;;;0.98;;
42846;SDS011;28495;49.916;14.536;2023-05-23T21:22:50;0.70;;;0.70;;
42846;SDS011;28495;49.916;14.536;2023-05-23T21:28:11;0.63;;;0.52;;
42846;SDS011;28495;49.916;14.536;2023-05-23T21:33:32;0.93;;;0.50;;
42846;SDS011;28495;49.916;14.536;2023-05-23T21:38:56;0.45;;;0.45;;
42846;SDS011;28495;49.916;14.536;2023-05-23T21:44:17;0.35;;;0.35;;
42846;SDS011;28495;49.916;14.536;2023-05-23T21:49:38;1.02;;;0.45;;
42846;SDS011;28495;49.916;14.536;2023-05-23T21:54:59;0.28;;;0.28;;
42846;SDS011;28495;49.916;14.536;2023-05-23T22:00:20;0.20;;;0.20;;
42846;SDS011;28495;49.916;14.536;2023-05-23T22:05:42;0.40;;;0.40;;
42846;SDS011;28495;49.916;14.536;2023-05-23T22:11:03;6.10;;;0.40;;
42846;SDS011;28495;49.916;14.536;2023-05-23T22:16:24;0.52;;;0.28;;
42846;SDS011;28495;49.916;14.536;2023-05-23T22:21:45;0.30;;;0.28;;
42846;SDS011;28495;49.916;14.536;2023-05-23T22:27:07;0.47;;;0.30;;
42846;SDS011;28495;49.916;14.536;2023-05-23T22:32:28;0.35;;;0.20;;
42846;SDS011;28495;49.916;14.536;2023-05-23T22:37:48;0.17;;;0.17;;
42846;SDS011;28495;49.916;14.536;2023-05-23T22:43:09;0.77;;;0.40;;
42846;SDS011;28495;49.916;14.536;2023-05-23T22:48:30;0.35;;;0.20;;
42846;SDS011;28495;49.916;14.536;2023-05-23T22:53:53;1.33;;;0.30;;
42846;SDS011;28495;49.916;14.536;2023-05-23T22:59:14;0.20;;;0.20;;
42846;SDS011;28495;49.916;14.536;2023-05-23T23:04:35;1.00;;;0.40;;
42846;SDS011;28495;49.916;14.536;2023-05-23T23:09:57;0.20;;;0.17;;
42846;SDS011;28495;49.916;14.536;2023-05-23T23:15:18;0.60;;;0.25;;
42846;SDS011;28495;49.916;14.536;2023-05-23T23:20:39;0.30;;;0.30;;
42846;SDS011;28495;49.916;14.536;2023-05-23T23:26:01;1.90;;;0.32;;
42846;SDS011;28495;49.916;14.536;2023-05-23T23:31:22;0.30;;;0.30;;
42846;SDS011;28495;49.916;14.536;2023-05-23T23:36:42;0.20;;;0.20;;
42846;SDS011;28495;49.916;14.536;2023-05-23T23:42:03;0.30;;;0.30;;
42846;SDS011;28495;49.916;14.536;2023-05-23T23:47:24;0.25;;;0.25;;
42846;SDS011;28495;49.916;14.536;2023-05-23T23:52:45;0.73;;;0.40;;
42846;SDS011;28495;49.916;14.536;2023-05-23T23:58:06;0.40;;;0.40;;
